Dixon, South Dakota
Current Conditions -  °F | °C
As of 12:53 AM on Sunday 26 Oct 2014 (Local Time) from KICR Reporting Station
Clear Clear  
Wind Chill: 11°   Ceiling: Unl
Heat Index: 11°   Visibility: 10mi
Dew Point:   Wind: 14mph
Humidity: 49%   Direction: 140°SE
Pressure: 29.91"   Gusts: NA
Location:  43.2419°N, 99.4287°W
Report Text: KICR 260553Z AUTO 14012KT 10SM CLR 11/01 A2991 RMK AO2 SLP124 T01110006 10144 20094 402170050 58025 $
Loading
Personal Weather Stations






























Interactive Weather Map
Tropical Storm Tracking
New forecast layout! Learn more

10-Day Weather Forecast

Advertisements
Track Severe Weather on mobile